Terminal Aerodrome Forecast
Issued by NWS

Home | Current Version | Previous Version | Text Only | Print | Product List | Glossary On
Versions: 1 2 3 4 5 6 7 8 9 10 11 12 13 14 15 16 17 18 19 20 21 22 23 24 25 26 27 28 29 30 31 32 33 34 35 36 37 38 39 40 41
000
FTAK31 PANC 131139
TAFAVD
TAF
PAVD 131139Z 1312/1412 VRB02KT P6SM SCT012 OVC040
     FM132100 25009KT P6SM VCSH SCT040 BKN050
     FM140500 VRB04KT P6SM VCFG SCT030 SCT050
      AMD LTD TO CLD VIS AND WIND=

USA.gov is the U.S. government's official web portal to all federal, state and local government web resources and services.